Time;durP1;ratioP1;P1;durP2;ratioP2;P2;SDS_P1;SDS_P2;PMS_P1;PMS_P2;Temp;Humidity;BMP_temperature;BMP_pressure;BME280_temperature;BME280_humidity;BME280_pressure;Samples;Min_cycle;Max_cycle;Signal;HPM_P1;HPM_P2
2022/04/05 00:00:24;;;;;;;3.65;2.65;;;12.80;98.90;;;;;;5065957;28;20497;-76
2022/04/05 00:02:52;;;;;;;3.60;1.95;;;12.90;98.80;;;;;;5086388;28;20062;-75
2022/04/05 00:05:20;;;;;;;3.35;1.63;;;12.80;98.70;;;;;;5072310;28;20465;-74
2022/04/05 00:07:48;;;;;;;5.20;1.70;;;12.80;98.60;;;;;;5072495;28;20062;-75
2022/04/05 00:10:16;;;;;;;2.47;1.73;;;12.80;98.60;;;;;;5062922;28;20139;-75
2022/04/05 00:12:44;;;;;;;2.70;1.60;;;12.80;98.60;;;;;;5069484;28;20435;-74
2022/04/05 00:15:11;;;;;;;4.63;2.10;;;12.80;98.60;;;;;;5077129;28;20040;-75
2022/04/05 00:17:39;;;;;;;3.65;1.90;;;12.80;98.60;;;;;;5054658;28;20132;-77
2022/04/05 00:20:08;;;;;;;1.90;1.20;;;12.80;98.60;;;;;;5063529;28;20047;-75
2022/04/05 00:22:35;;;;;;;3.92;1.73;;;12.80;98.50;;;;;;5062451;28;20066;-77
2022/04/05 00:25:04;;;;;;;1.95;1.35;;;12.80;98.70;;;;;;5082309;28;20048;-77
2022/04/05 00:27:31;;;;;;;2.10;1.35;;;12.80;98.70;;;;;;5073693;28;20041;-75
2022/04/05 00:30:01;;;;;;;1.48;0.90;;;12.80;98.70;;;;;;5082327;28;20043;-74
2022/04/05 00:32:29;;;;;;;1.85;1.38;;;12.80;98.70;;;;;;5083510;28;20064;-77
2022/04/05 00:34:57;;;;;;;1.88;1.08;;;12.80;98.80;;;;;;5062301;28;20051;-74
2022/04/05 00:37:24;;;;;;;2.45;1.50;;;12.80;98.80;;;;;;5061676;28;20507;-76
2022/04/05 00:39:52;;;;;;;1.27;0.90;;;12.80;98.80;;;;;;5077482;28;20051;-76
2022/04/05 00:42:22;;;;;;;2.20;1.20;;;12.80;98.90;;;;;;5106838;28;20146;-76
2022/04/05 00:44:50;;;;;;;4.07;1.58;;;12.80;98.90;;;;;;5078739;28;20055;-76
2022/04/05 00:47:20;;;;;;;1.33;1.02;;;12.80;98.90;;;;;;5079378;28;20091;-78
2022/04/05 00:49:50;;;;;;;2.88;1.50;;;12.80;98.90;;;;;;5072267;28;20043;-74
2022/04/05 00:52:21;;;;;;;2.38;1.40;;;12.80;99.00;;;;;;5076085;28;20049;-75
2022/04/05 00:54:50;;;;;;;1.58;0.93;;;12.80;99.00;;;;;;5110932;28;20051;-75
2022/04/05 00:57:22;;;;;;;2.10;1.40;;;12.70;99.00;;;;;;5110980;28;20036;-75
2022/04/05 00:59:55;;;;;;;1.83;0.82;;;12.70;99.10;;;;;;5092906;28;20052;-74
2022/04/05 01:02:25;;;;;;;2.28;1.17;;;12.80;99.20;;;;;;5076467;28;20044;-75
2022/04/05 01:04:54;;;;;;;2.03;0.93;;;12.70;99.30;;;;;;5059901;28;20109;-75
2022/04/05 01:07:27;;;;;;;3.38;1.00;;;12.70;99.30;;;;;;5093416;28;20552;-75
2022/04/05 01:09:56;;;;;;;3.83;1.55;;;12.70;99.40;;;;;;5075301;28;20044;-75
2022/04/05 01:12:24;;;;;;;2.13;1.10;;;12.80;99.40;;;;;;5076287;28;20056;-75
2022/04/05 01:14:52;;;;;;;2.20;1.38;;;12.70;99.40;;;;;;5076189;28;20048;-75
2022/04/05 01:17:20;;;;;;;2.10;0.90;;;12.70;99.50;;;;;;5075837;28;20139;-75
2022/04/05 01:19:47;;;;;;;2.38;1.63;;;12.70;99.50;;;;;;5075903;28;20040;-75
2022/04/05 01:22:15;;;;;;;1.42;1.13;;;12.70;99.60;;;;;;5094413;28;20467;-75
2022/04/05 01:24:43;;;;;;;2.40;1.23;;;12.70;99.70;;;;;;5093695;28;20491;-75
2022/04/05 01:27:17;;;;;;;2.95;1.23;;;12.70;99.80;;;;;;5094180;28;20047;-76
2022/04/05 01:29:47;;;;;;;2.92;1.30;;;12.70;99.80;;;;;;5053993;28;20048;-76
2022/04/05 01:32:16;;;;;;;2.42;1.35;;;12.70;99.90;;;;;;5054020;28;20033;-74
2022/04/05 01:34:43;;;;;;;3.05;1.27;;;12.70;99.90;;;;;;5038279;28;20045;-73
2022/04/05 01:37:11;;;;;;;2.58;2.05;;;12.70;99.90;;;;;;5037468;28;20056;-74
2022/04/05 01:39:40;;;;;;;3.83;2.03;;;12.70;99.90;;;;;;5037636;28;20056;-73
2022/04/05 01:42:13;;;;;;;2.20;1.60;;;12.70;99.90;;;;;;5054360;28;20044;-75
2022/04/05 01:44:42;;;;;;;4.70;1.50;;;12.70;99.90;;;;;;5055275;28;20527;-74
2022/04/05 01:47:12;;;;;;;5.32;1.85;;;12.70;99.90;;;;;;5053747;28;20099;-74
2022/04/05 01:49:42;;;;;;;3.63;1.40;;;12.60;99.90;;;;;;5037366;28;20052;-75
2022/04/05 01:52:10;;;;;;;2.28;1.30;;;12.60;99.90;;;;;;5053643;28;20045;-74
2022/04/05 01:54:39;;;;;;;2.63;1.73;;;12.60;99.70;;;;;;5053846;28;20115;-74
2022/04/05 01:57:07;;;;;;;2.45;1.27;;;12.60;99.70;;;;;;5053250;28;20051;-75
2022/04/05 01:59:37;;;;;;;2.75;1.30;;;12.60;99.60;;;;;;5053024;28;20055;-74
2022/04/05 02:02:10;;;;;;;1.85;1.25;;;12.60;99.40;;;;;;5036413;28;20811;-75
2022/04/05 02:04:39;;;;;;;2.00;1.08;;;12.50;99.30;;;;;;5053661;28;20059;-75
2022/04/05 02:07:15;;;;;;;4.90;1.65;;;12.60;99.30;;;;;;5035790;28;20037;-74
2022/04/05 02:09:47;;;;;;;2.05;1.42;;;12.60;99.10;;;;;;5052090;28;20044;-76
2022/04/05 02:12:16;;;;;;;1.75;1.17;;;12.60;99.00;;;;;;5053005;28;20395;-75
2022/04/05 02:14:50;;;;;;;2.80;1.10;;;12.60;98.90;;;;;;5037366;28;20055;-75
2022/04/05 02:17:27;;;;;;;2.08;1.10;;;12.50;98.80;;;;;;5038294;28;20127;-75
2022/04/05 02:19:57;;;;;;;2.25;1.25;;;12.50;98.90;;;;;;5056908;28;20131;-74
2022/04/05 02:22:26;;;;;;;4.53;1.77;;;12.60;98.90;;;;;;5056540;28;20433;-75
2022/04/05 02:25:01;;;;;;;1.90;1.23;;;12.50;98.90;;;;;;5072593;28;20553;-74
2022/04/05 02:27:32;;;;;;;3.33;1.35;;;12.50;99.00;;;;;;5056301;28;20060;-74
2022/04/05 02:30:00;;;;;;;3.20;1.40;;;12.50;99.10;;;;;;5039605;28;20048;-75
2022/04/05 02:32:30;;;;;;;2.28;1.75;;;12.40;99.10;;;;;;5056078;28;20941;-74
2022/04/05 02:34:58;;;;;;;3.58;1.00;;;12.40;99.10;;;;;;5055461;28;20066;-74
2022/04/05 02:37:28;;;;;;;3.58;1.55;;;12.50;99.10;;;;;;5055549;28;20040;-74
2022/04/05 02:39:55;;;;;;;3.25;1.25;;;12.50;99.20;;;;;;5056538;28;20040;-75
2022/04/05 02:42:23;;;;;;;5.35;1.38;;;12.50;99.10;;;;;;5055986;28;20512;-79
2022/04/05 02:44:51;;;;;;;2.30;1.30;;;12.40;99.10;;;;;;5055931;28;20070;-75
2022/04/05 02:47:19;;;;;;;2.35;0.80;;;12.40;99.20;;;;;;5072876;28;20123;-75
2022/04/05 02:49:53;;;;;;;2.65;1.58;;;12.40;99.30;;;;;;5055722;28;20066;-75
2022/04/05 02:52:26;;;;;;;7.72;2.25;;;12.40;99.30;;;;;;5056624;28;20501;-75
2022/04/05 02:54:59;;;;;;;4.43;2.17;;;12.50;99.30;;;;;;5056049;28;20379;-79
2022/04/05 02:57:29;;;;;;;9.35;2.22;;;12.40;99.40;;;;;;5039385;28;20056;-75
2022/04/05 02:59:59;;;;;;;2.53;1.05;;;12.40;99.30;;;;;;5039133;28;20083;-75
2022/04/05 03:02:29;;;;;;;2.58;1.30;;;12.40;99.40;;;;;;5051887;28;20110;-74
2022/04/05 03:04:57;;;;;;;3.58;1.13;;;12.40;99.50;;;;;;5019061;28;20487;-74
2022/04/05 03:07:25;;;;;;;2.25;1.73;;;12.40;99.60;;;;;;5035200;28;20043;-74
2022/04/05 03:09:53;;;;;;;2.33;1.30;;;12.40;99.70;;;;;;5051552;28;20514;-76
2022/04/05 03:12:21;;;;;;;2.55;1.48;;;12.40;99.60;;;;;;5051872;28;20057;-74
2022/04/05 03:14:52;;;;;;;3.30;1.30;;;12.30;99.50;;;;;;5021522;28;20041;-75
2022/04/05 03:17:22;;;;;;;3.40;1.30;;;12.40;99.60;;;;;;5035331;28;20045;-78
2022/04/05 03:19:51;;;;;;;2.90;1.45;;;12.40;99.60;;;;;;5051503;28;20548;-75
2022/04/05 03:22:20;;;;;;;4.03;1.13;;;12.30;99.50;;;;;;5034228;28;20044;-75
2022/04/05 03:24:48;;;;;;;5.15;1.23;;;12.30;99.60;;;;;;5052454;28;20386;-75
2022/04/05 03:27:15;;;;;;;4.53;2.08;;;12.30;99.50;;;;;;5051429;28;20107;-75
2022/04/05 03:29:43;;;;;;;2.38;1.20;;;12.30;99.50;;;;;;5034800;28;20041;-75
2022/04/05 03:32:11;;;;;;;4.55;1.42;;;12.30;99.30;;;;;;5051220;28;20076;-75
2022/04/05 03:34:42;;;;;;;1.48;1.05;;;12.20;99.30;;;;;;5035248;28;20056;-75
2022/04/05 03:37:10;;;;;;;2.03;1.20;;;12.30;99.20;;;;;;5051402;28;20728;-75
2022/04/05 03:39:39;;;;;;;2.15;1.00;;;12.30;99.20;;;;;;5018412;28;20052;-75
2022/04/05 03:42:07;;;;;;;2.70;1.10;;;12.20;99.10;;;;;;5051357;28;20560;-75
2022/04/05 03:44:35;;;;;;;3.28;1.10;;;12.20;99.20;;;;;;5050997;28;20049;-75
2022/04/05 03:47:04;;;;;;;1.98;1.77;;;12.10;99.20;;;;;;5018465;28;20471;-75
2022/04/05 03:49:32;;;;;;;4.50;1.13;;;12.10;99.10;;;;;;5051658;28;20041;-75
2022/04/05 03:52:01;;;;;;;2.35;1.20;;;12.10;99.10;;;;;;5034927;28;20056;-76
2022/04/05 03:54:29;;;;;;;2.45;1.40;;;12.10;99.20;;;;;;5051130;28;20056;-74
2022/04/05 03:57:03;;;;;;;1.10;0.60;;;12.10;99.20;;;;;;5051089;28;20084;-75
2022/04/05 03:59:31;;;;;;;3.95;1.25;;;12.10;99.20;;;;;;5034852;28;20061;-74
2022/04/05 04:02:00;;;;;;;1.73;1.13;;;12.10;99.20;;;;;;5034335;28;20048;-75
2022/04/05 04:04:27;;;;;;;2.08;1.13;;;12.00;99.20;;;;;;5052269;28;20049;-74
2022/04/05 04:06:56;;;;;;;1.80;0.90;;;12.10;99.10;;;;;;5050772;28;20049;-74
2022/04/05 04:09:24;;;;;;;6.00;1.45;;;12.10;99.10;;;;;;5050747;28;20045;-75
2022/04/05 04:11:53;;;;;;;1.75;0.88;;;12.10;99.10;;;;;;5051343;28;20098;-74
2022/04/05 04:14:20;;;;;;;12.85;1.25;;;12.10;99.10;;;;;;5035549;28;20056;-75
2022/04/05 04:16:49;;;;;;;2.28;1.13;;;12.10;99.00;;;;;;5034268;28;20067;-75
2022/04/05 04:19:16;;;;;;;1.63;1.10;;;12.10;99.00;;;;;;5051154;28;20087;-76
2022/04/05 04:21:47;;;;;;;6.65;1.88;;;12.00;99.00;;;;;;5050678;28;20401;-75
2022/04/05 04:24:15;;;;;;;3.20;1.48;;;12.10;99.00;;;;;;5050616;28;20379;-75
2022/04/05 04:26:44;;;;;;;2.85;1.30;;;12.00;99.10;;;;;;5033593;28;20469;-75
2022/04/05 04:29:12;;;;;;;2.28;1.00;;;12.00;99.00;;;;;;5033548;28;20045;-76
2022/04/05 04:31:39;;;;;;;2.97;1.05;;;12.00;99.10;;;;;;5034111;28;20182;-75
2022/04/05 04:34:08;;;;;;;3.13;1.05;;;12.00;99.00;;;;;;5038624;28;20129;-75
2022/04/05 04:36:36;;;;;;;1.60;0.90;;;12.10;99.10;;;;;;5038955;28;20040;-75
2022/04/05 04:39:04;;;;;;;4.15;1.10;;;12.10;99.00;;;;;;5054982;28;20041;-76
2022/04/05 04:41:31;;;;;;;1.90;1.38;;;12.10;99.00;;;;;;5055075;28;20045;-75
2022/04/05 04:43:59;;;;;;;2.92;1.55;;;12.10;98.90;;;;;;5054775;28;20557;-74
2022/04/05 04:46:26;;;;;;;3.03;1.50;;;12.10;99.00;;;;;;5055165;28;20049;-76
2022/04/05 04:48:54;;;;;;;5.70;1.80;;;12.10;98.90;;;;;;5054971;28;20049;-75
2022/04/05 04:51:21;;;;;;;3.83;1.50;;;12.10;98.80;;;;;;5038844;28;20098;-74
2022/04/05 04:53:49;;;;;;;3.70;1.60;;;12.20;98.90;;;;;;5055504;28;20037;-75
2022/04/05 04:56:17;;;;;;;3.88;1.75;;;12.20;98.90;;;;;;5054427;28;20051;-75
2022/04/05 04:58:44;;;;;;;2.65;1.55;;;12.20;98.80;;;;;;5054586;28;20044;-75
2022/04/05 05:01:12;;;;;;;3.65;1.60;;;12.20;98.80;;;;;;5055108;28;20721;-75
2022/04/05 05:03:40;;;;;;;1.60;1.02;;;12.20;98.90;;;;;;5043843;28;20048;-75
2022/04/05 05:06:08;;;;;;;2.65;1.23;;;12.30;98.90;;;;;;5057484;28;20815;-76
2022/04/05 05:08:36;;;;;;;1.75;1.33;;;12.30;98.80;;;;;;5074837;28;20429;-75
2022/04/05 05:11:04;;;;;;;4.78;2.03;;;12.40;98.80;;;;;;5042086;28;20060;-75
2022/04/05 05:13:31;;;;;;;2.60;1.50;;;12.40;98.80;;;;;;5058374;28;20064;-75
2022/04/05 05:15:59;;;;;;;1.88;1.20;;;12.50;98.80;;;;;;5074488;28;20498;-75
2022/04/05 05:18:27;;;;;;;3.33;1.50;;;12.50;98.70;;;;;;5058174;28;20041;-74
2022/04/05 05:20:55;;;;;;;2.83;2.10;;;12.50;98.70;;;;;;5075325;28;20174;-75
2022/04/05 05:23:23;;;;;;;2.15;1.38;;;12.70;98.70;;;;;;5057779;28;20063;-75
2022/04/05 05:25:50;;;;;;;2.53;1.00;;;12.70;98.50;;;;;;5057655;28;20119;-74
2022/04/05 05:28:21;;;;;;;3.80;1.33;;;12.90;98.40;;;;;;5074141;28;20390;-74
2022/04/05 05:30:48;;;;;;;1.90;1.10;;;12.90;98.30;;;;;;5057168;28;20041;-75
2022/04/05 05:33:16;;;;;;;2.38;1.10;;;13.00;98.20;;;;;;5074829;28;20556;-75
2022/04/05 05:35:44;;;;;;;1.55;1.25;;;13.10;98.10;;;;;;5056496;28;20393;-75
2022/04/05 05:38:11;;;;;;;4.88;2.05;;;13.10;97.90;;;;;;5039944;28;20045;-75
2022/04/05 05:40:39;;;;;;;2.13;1.30;;;13.20;97.70;;;;;;5056769;28;20491;-74
2022/04/05 05:43:07;;;;;;;2.85;1.30;;;13.30;97.50;;;;;;5056802;28;20094;-74
2022/04/05 05:45:36;;;;;;;1.98;1.33;;;13.40;97.30;;;;;;5072894;28;20071;-74
2022/04/05 05:48:05;;;;;;;3.70;1.13;;;13.50;97.10;;;;;;5073899;28;20041;-75
2022/04/05 05:50:34;;;;;;;2.00;1.00;;;13.60;97.00;;;;;;5074950;28;20517;-75
2022/04/05 05:53:02;;;;;;;3.58;1.17;;;13.70;97.00;;;;;;5073768;28;20068;-75
2022/04/05 05:55:30;;;;;;;4.55;2.20;;;13.80;96.90;;;;;;5063482;28;20051;-77
2022/04/05 05:57:58;;;;;;;1.63;0.90;;;13.80;96.80;;;;;;5021590;28;20056;-74
2022/04/05 06:00:26;;;;;;;2.00;0.90;;;13.90;96.80;;;;;;5057050;28;20044;-74
2022/04/05 06:02:58;;;;;;;1.88;1.30;;;14.00;96.60;;;;;;5056376;28;20122;-74
2022/04/05 06:05:25;;;;;;;2.38;1.17;;;14.10;96.50;;;;;;5056896;28;20516;-75
2022/04/05 06:07:54;;;;;;;3.78;1.42;;;14.20;96.50;;;;;;5056281;28;20418;-74
2022/04/05 06:10:22;;;;;;;4.05;1.40;;;14.40;96.30;;;;;;5056643;28;20040;-74
2022/04/05 06:12:50;;;;;;;3.20;1.20;;;14.50;96.30;;;;;;5040348;28;20069;-75
2022/04/05 06:15:19;;;;;;;5.18;1.48;;;14.50;96.10;;;;;;5072949;28;20410;-75
2022/04/05 06:17:58;;;;;;;3.28;1.02;;;14.60;96.20;;;;;;5039148;28;20048;-74
2022/04/05 06:20:27;;;;;;;2.80;1.77;;;14.70;96.10;;;;;;5039509;28;20040;-75
2022/04/05 06:23:05;;;;;;;3.13;1.98;;;14.60;96.30;;;;;;5039619;28;20398;-77
2022/04/05 06:25:35;;;;;;;2.92;1.27;;;14.70;96.50;;;;;;5039401;28;20051;-74
2022/04/05 06:28:06;;;;;;;1.88;1.05;;;14.70;96.60;;;;;;5055467;28;20052;-75
2022/04/05 06:30:36;;;;;;;3.00;1.48;;;14.80;96.80;;;;;;5038627;28;20453;-75
2022/04/05 06:33:10;;;;;;;2.00;0.93;;;14.90;96.80;;;;;;5054146;28;20070;-75
2022/04/05 06:35:40;;;;;;;1.52;1.00;;;14.60;96.80;;;;;;5054508;28;20037;-75
2022/04/05 06:38:08;;;;;;;3.47;1.63;;;14.60;96.80;;;;;;5037578;28;20106;-75
2022/04/05 06:40:37;;;;;;;2.85;1.15;;;14.70;97.00;;;;;;5054226;28;20505;-74
2022/04/05 06:43:05;;;;;;;2.92;1.05;;;14.70;97.00;;;;;;5053896;28;20437;-74
2022/04/05 06:45:33;;;;;;;4.18;1.55;;;14.70;96.80;;;;;;5054024;28;20056;-74
2022/04/05 06:48:02;;;;;;;2.10;1.00;;;14.70;97.00;;;;;;5054259;28;20094;-74
2022/04/05 06:50:30;;;;;;;1.90;1.40;;;14.80;96.80;;;;;;5053505;28;20044;-74
2022/04/05 06:52:59;;;;;;;1.48;1.00;;;15.00;96.90;;;;;;5075819;28;20067;-75
2022/04/05 06:55:27;;;;;;;2.85;1.42;;;15.20;96.40;;;;;;5057305;28;20040;-74
2022/04/05 06:57:56;;;;;;;1.70;0.82;;;15.30;96.00;;;;;;5073764;28;20879;-77
2022/04/05 07:00:25;;;;;;;2.80;0.88;;;15.50;95.80;;;;;;5073940;28;20040;-74
2022/04/05 07:02:54;;;;;;;1.73;0.90;;;15.80;95.60;;;;;;5073608;28;20781;-74
2022/04/05 07:05:23;;;;;;;2.13;1.00;;;15.80;94.60;;;;;;5073524;28;20048;-74
2022/04/05 07:07:51;;;;;;;5.70;1.40;;;15.70;94.50;;;;;;5073597;28;20036;-75
2022/04/05 07:10:19;;;;;;;2.67;0.93;;;15.90;94.50;;;;;;5056838;28;20051;-74
2022/04/05 07:12:48;;;;;;;3.33;1.20;;;16.10;94.10;;;;;;5056883;28;20517;-75
2022/04/05 07:15:16;;;;;;;2.88;1.23;;;16.20;93.90;;;;;;5040494;28;20056;-74
2022/04/05 07:17:44;;;;;;;4.93;1.20;;;16.40;93.60;;;;;;5073252;28;20130;-74
2022/04/05 07:20:34;;;;;;;2.17;1.10;;;16.60;93.90;;;;;;5042642;28;20055;-74
2022/04/05 07:23:02;;;;;;;3.17;1.30;;;16.60;93.70;;;;;;5073577;28;20044;-75
2022/04/05 07:25:29;;;;;;;1.65;1.17;;;16.60;93.10;;;;;;5073270;28;20143;-74
2022/04/05 07:27:57;;;;;;;1.65;0.90;;;16.30;93.40;;;;;;5056108;28;20055;-74
2022/04/05 07:30:25;;;;;;;1.92;1.20;;;16.30;93.80;;;;;;5090705;28;20043;-73
2022/04/05 07:32:53;;;;;;;1.77;1.10;;;16.20;93.80;;;;;;5070588;28;20040;-73
2022/04/05 07:35:21;;;;;;;2.67;0.98;;;16.40;93.60;;;;;;5066858;28;20757;-74
2022/04/05 07:37:49;;;;;;;2.47;1.30;;;16.50;93.10;;;;;;5081674;28;20054;-73
2022/04/05 07:40:17;;;;;;;4.07;1.35;;;16.40;93.10;;;;;;5053677;28;20054;-73
2022/04/05 07:42:47;;;;;;;3.33;2.05;;;16.50;93.10;;;;;;5060533;28;20073;-73
2022/04/05 07:45:16;;;;;;;3.90;1.63;;;16.50;92.90;;;;;;5034959;28;20048;-73
2022/04/05 07:47:45;;;;;;;26.92;1.73;;;16.50;92.90;;;;;;5077262;28;20394;-72
2022/04/05 07:50:13;;;;;;;4.50;1.85;;;16.50;92.20;;;;;;5098786;28;20039;-74
2022/04/05 07:52:40;;;;;;;1.80;1.13;;;16.40;92.60;;;;;;5062714;28;20054;-73
2022/04/05 07:55:08;;;;;;;2.35;1.17;;;16.30;92.70;;;;;;5080264;28;20051;-73
2022/04/05 07:57:40;;;;;;;2.30;1.10;;;16.30;92.20;;;;;;5060343;28;20063;-72
2022/04/05 08:00:09;;;;;;;1.73;1.10;;;16.50;92.40;;;;;;5057111;28;20071;-73
2022/04/05 08:02:40;;;;;;;2.72;1.30;;;16.70;92.90;;;;;;5036774;28;20125;-71
2022/04/05 08:05:13;;;;;;;2.35;1.02;;;16.90;92.60;;;;;;5053402;28;20044;-72
2022/04/05 08:07:40;;;;;;;3.45;0.88;;;16.90;92.20;;;;;;5052359;28;20739;-71
2022/04/05 08:10:09;;;;;;;5.18;1.48;;;16.90;91.90;;;;;;5035907;28;20071;-71
2022/04/05 08:12:44;;;;;;;2.25;1.35;;;17.10;92.10;;;;;;5036481;28;20537;-71
2022/04/05 08:15:14;;;;;;;7.15;1.63;;;17.30;92.00;;;;;;5052642;28;20071;-71
2022/04/05 08:17:42;;;;;;;1.85;1.00;;;17.40;92.10;;;;;;5052071;28;20494;-72
2022/04/05 08:20:11;;;;;;;1.33;0.82;;;17.30;91.60;;;;;;5069278;28;20071;-71
2022/04/05 08:22:39;;;;;;;1.98;1.27;;;17.50;91.80;;;;;;5052566;28;20062;-71
2022/04/05 08:25:08;;;;;;;3.33;1.00;;;17.80;91.80;;;;;;5035892;28;20060;-74
2022/04/05 08:27:36;;;;;;;3.40;1.20;;;17.90;91.90;;;;;;5052595;28;20053;-71
2022/04/05 08:30:05;;;;;;;2.92;1.00;;;17.70;91.70;;;;;;5035373;28;20049;-72
2022/04/05 08:32:36;;;;;;;3.45;1.10;;;17.70;91.90;;;;;;5035750;28;20110;-71
2022/04/05 08:35:06;;;;;;;4.35;1.00;;;17.70;91.80;;;;;;5070497;28;20443;-71
2022/04/05 08:37:34;;;;;;;2.75;1.10;;;17.50;91.40;;;;;;5072787;28;20113;-72
2022/04/05 08:40:06;;;;;;;4.63;1.13;;;17.30;91.40;;;;;;5072579;28;20105;-72
2022/04/05 08:42:39;;;;;;;3.05;1.48;;;17.20;91.60;;;;;;5072391;28;20036;-71
2022/04/05 08:45:10;;;;;;;2.20;1.23;;;17.20;91.70;;;;;;5055659;28;20241;-70
2022/04/05 08:47:51;;;;;;;4.13;1.23;;;17.30;92.20;;;;;;5023164;28;20502;-73
2022/04/05 08:50:21;;;;;;;3.15;1.10;;;17.50;92.30;;;;;;5071951;28;20067;-71
2022/04/05 08:52:50;;;;;;;3.45;1.02;;;17.60;91.10;;;;;;5071590;28;20105;-71
2022/04/05 08:55:18;;;;;;;1.70;0.80;;;17.60;90.50;;;;;;5055141;28;20131;-72
2022/04/05 08:57:45;;;;;;;3.88;1.05;;;17.80;90.80;;;;;;5072009;28;20075;-71
2022/04/05 09:00:15;;;;;;;1.55;0.90;;;17.80;90.80;;;;;;5071325;28;20559;-71
2022/04/05 09:03:01;;;;;;;2.45;0.80;;;18.00;90.50;;;;;;5071679;28;20150;-72
2022/04/05 09:05:42;;;;;;;1.45;1.00;;;18.00;90.40;;;;;;5089786;28;20048;-71
2022/04/05 09:08:26;;;;;;;2.13;1.27;;;18.10;90.10;;;;;;5055302;28;20147;-72
2022/04/05 09:11:12;;;;;;;3.35;1.45;;;18.20;90.10;;;;;;5055572;28;20044;-71
2022/04/05 09:13:40;;;;;;;4.20;1.40;;;18.50;88.70;;;;;;5072226;28;20040;-71
2022/04/05 09:16:08;;;;;;;3.35;1.10;;;18.40;87.90;;;;;;5055336;28;20047;-71
2022/04/05 09:18:44;;;;;;;3.05;0.90;;;18.40;88.80;;;;;;5089971;28;20093;-72
2022/04/05 09:21:15;;;;;;;3.15;1.20;;;18.30;88.60;;;;;;5040957;28;20106;-70
2022/04/05 09:23:44;;;;;;;2.38;1.15;;;18.40;89.60;;;;;;5039287;28;20502;-71
2022/04/05 09:26:13;;;;;;;2.53;1.10;;;18.40;88.80;;;;;;5071347;28;20046;-72
2022/04/05 09:28:43;;;;;;;1.90;1.10;;;18.40;88.90;;;;;;5072286;28;20116;-70
2022/04/05 09:31:22;;;;;;;1.67;0.80;;;18.40;89.40;;;;;;5071805;28;20194;-70
2022/04/05 09:34:17;;;;;;;4.05;1.10;;;18.20;86.80;;;;;;5051599;28;20135;-72
2022/04/05 09:36:48;;;;;;;2.75;0.88;;;18.30;88.20;;;;;;5019461;28;20044;-70
2022/04/05 09:39:24;;;;;;;0.98;0.80;;;18.40;87.40;;;;;;5035330;28;20048;-71
2022/04/05 09:42:05;;;;;;;2.30;1.48;;;18.30;88.00;;;;;;5052621;28;20477;-71
2022/04/05 09:44:38;;;;;;;2.47;1.50;;;18.30;87.50;;;;;;5035872;28;20032;-72
2022/04/05 09:47:16;;;;;;;2.80;0.90;;;18.30;87.00;;;;;;5052696;28;20075;-71
2022/04/05 09:49:47;;;;;;;1.65;1.00;;;18.40;87.40;;;;;;5035733;28;20122;-71
2022/04/05 09:52:32;;;;;;;2.85;1.35;;;18.40;88.20;;;;;;5070127;28;20162;-72
2022/04/05 09:55:11;;;;;;;4.30;0.85;;;18.50;87.40;;;;;;5018575;28;20147;-70
2022/04/05 09:57:39;;;;;;;2.85;1.15;;;18.30;85.60;;;;;;5035568;28;20481;-71
2022/04/05 10:00:14;;;;;;;3.17;1.30;;;18.20;86.80;;;;;;5035308;28;20395;-70
2022/04/05 10:03:08;;;;;;;1.75;0.90;;;18.40;87.30;;;;;;5035557;28;20093;-72
2022/04/05 10:05:39;;;;;;;2.60;1.10;;;18.30;86.90;;;;;;5069645;28;20063;-72
2022/04/05 10:08:07;;;;;;;1.98;0.90;;;18.00;85.70;;;;;;5051673;28;20143;-72
2022/04/05 10:10:35;;;;;;;3.45;1.92;;;17.70;86.80;;;;;;5035333;28;20074;-70
2022/04/05 10:13:02;;;;;;;2.65;1.02;;;17.70;87.80;;;;;;5051734;28;20088;-70
2022/04/05 10:15:30;;;;;;;3.45;1.30;;;17.70;85.80;;;;;;5068639;28;20056;-72
2022/04/05 10:17:58;;;;;;;4.30;1.33;;;17.90;86.00;;;;;;5070977;28;20072;-70
2022/04/05 10:20:28;;;;;;;1.90;0.98;;;17.90;86.20;;;;;;5060609;28;20044;-70
2022/04/05 10:23:00;;;;;;;4.90;2.50;;;17.70;86.60;;;;;;5048889;28;20043;-69
2022/04/05 10:25:30;;;;;;;7.85;3.42;;;17.80;87.40;;;;;;5051139;28;20045;-69
2022/04/05 10:27:58;;;;;;;8.88;3.97;;;17.90;87.80;;;;;;5020871;28;20082;-71
2022/04/05 10:30:53;;;;;;;7.78;4.82;;;18.10;86.40;;;;;;5059915;28;20063;-71
2022/04/05 10:33:45;;;;;;;4.38;1.98;;;18.00;83.60;;;;;;5062424;28;20147;-71
2022/04/05 10:36:13;;;;;;;4.40;2.55;;;17.90;84.40;;;;;;5072919;28;20358;-72
2022/04/05 10:38:40;;;;;;;3.78;1.10;;;17.90;85.60;;;;;;5053077;28;20193;-70
2022/04/05 10:41:16;;;;;;;5.85;2.03;;;17.80;86.80;;;;;;5055289;28;20700;-69
2022/04/05 10:43:45;;;;;;;2.92;1.23;;;17.80;87.30;;;;;;5103713;28;20042;-72
2022/04/05 10:46:14;;;;;;;3.85;1.63;;;17.80;86.40;;;;;;5082226;28;20044;-71
2022/04/05 10:48:56;;;;;;;3.92;2.25;;;17.90;88.00;;;;;;5086942;28;20035;-78
2022/04/05 10:51:33;;;;;;;6.65;3.60;;;17.90;85.90;;;;;;5070005;28;20691;-73
2022/04/05 10:54:19;;;;;;;9.85;5.15;;;18.00;86.30;;;;;;5055146;28;20044;-71
2022/04/05 10:57:16;;;;;;;7.38;3.55;;;18.00;87.00;;;;;;5061557;28;20059;-71
2022/04/05 11:00:00;;;;;;;5.30;2.50;;;18.10;85.40;;;;;;5039428;28;20516;-70
2022/04/05 11:02:36;;;;;;;1.60;0.93;;;18.20;85.20;;;;;;5062874;28;20048;-71
2022/04/05 11:05:13;;;;;;;5.25;2.30;;;18.30;83.50;;;;;;5080323;28;20077;-70
2022/04/05 11:08:01;;;;;;;10.32;3.90;;;18.30;83.40;;;;;;5039431;28;20105;-79
2022/04/05 11:10:45;;;;;;;7.75;4.07;;;18.50;84.50;;;;;;5049866;28;20170;-70
2022/04/05 11:13:29;;;;;;;2.45;1.52;;;18.30;84.90;;;;;;5064754;28;20144;-70
2022/04/05 11:15:59;;;;;;;7.65;2.72;;;18.20;84.20;;;;;;5055707;28;20089;-71
2022/04/05 11:18:35;;;;;;;6.47;2.33;;;18.20;84.70;;;;;;5067703;28;20077;-71
2022/04/05 11:21:08;;;;;;;5.03;2.33;;;18.20;84.90;;;;;;5033613;28;20456;-72
2022/04/05 11:23:48;;;;;;;1.70;0.90;;;18.30;84.30;;;;;;5064292;28;20043;-71
2022/04/05 11:26:25;;;;;;;2.58;1.40;;;18.10;82.60;;;;;;5055585;28;20078;-72
2022/04/05 11:28:56;;;;;;;3.72;1.30;;;18.00;83.20;;;;;;5069178;28;20507;-70
2022/04/05 11:31:39;;;;;;;7.53;2.17;;;18.00;82.30;;;;;;5070363;28;20058;-71
2022/04/05 11:34:34;;;;;;;4.72;2.70;;;18.00;83.90;;;;;;5068834;28;20068;-71
2022/04/05 11:37:03;;;;;;;3.35;2.22;;;18.00;84.40;;;;;;5060932;28;20051;-71
2022/04/05 11:39:36;;;;;;;4.13;1.52;;;18.00;81.20;;;;;;5082367;28;20044;-70
2022/04/05 11:42:04;;;;;;;3.97;1.80;;;17.90;81.80;;;;;;5057733;28;20040;-70
2022/04/05 11:44:32;;;;;;;3.63;1.70;;;18.00;83.70;;;;;;5050140;28;20048;-71
2022/04/05 11:47:01;;;;;;;2.65;1.40;;;17.90;82.90;;;;;;5063686;28;20043;-71
2022/04/05 11:49:41;;;;;;;3.67;1.60;;;18.00;82.80;;;;;;5066087;28;20064;-71
2022/04/05 11:52:10;;;;;;;2.90;1.00;;;18.00;81.40;;;;;;5063693;28;20136;-71
2022/04/05 11:57:26;;;;;;;3.00;1.17;;;18.00;83.00;;;;;;5063686;28;20082;-71
2022/04/05 12:00:06;;;;;;;2.55;0.93;;;17.80;82.40;;;;;;5061529;28;20063;-71
2022/04/05 12:02:35;;;;;;;2.50;1.40;;;17.70;82.90;;;;;;5066319;28;20052;-70
2022/04/05 12:05:03;;;;;;;2.30;0.90;;;17.70;82.70;;;;;;5067484;28;20082;-74
2022/04/05 12:07:35;;;;;;;2.20;0.85;;;17.70;81.10;;;;;;5075269;28;20032;-71
2022/04/05 12:10:03;;;;;;;4.70;1.70;;;17.80;82.20;;;;;;5097719;28;20895;-72
2022/04/05 12:12:32;;;;;;;2.72;1.42;;;17.80;82.80;;;;;;5069331;28;20040;-72
2022/04/05 12:15:14;;;;;;;3.42;1.10;;;17.70;81.40;;;;;;5097356;28;20493;-71
2022/04/05 12:17:41;;;;;;;2.13;1.00;;;17.70;82.50;;;;;;5052381;28;20046;-70
2022/04/05 12:20:10;;;;;;;2.10;1.02;;;17.60;83.30;;;;;;5081862;28;20105;-71
2022/04/05 12:22:39;;;;;;;1.35;1.10;;;17.50;83.80;;;;;;5072955;28;20150;-70
2022/04/05 12:25:08;;;;;;;5.32;0.88;;;17.50;83.90;;;;;;5067051;28;20048;-71
2022/04/05 12:27:36;;;;;;;2.42;1.45;;;17.60;82.70;;;;;;5062562;28;20059;-71
2022/04/05 12:30:05;;;;;;;2.65;1.10;;;17.50;83.40;;;;;;5107591;28;20489;-70
2022/04/05 12:32:37;;;;;;;2.53;1.55;;;17.40;84.90;;;;;;5046852;28;20129;-72
2022/04/05 12:35:13;;;;;;;1.02;0.70;;;17.50;84.00;;;;;;5074866;28;20044;-71
2022/04/05 12:37:41;;;;;;;1.80;0.93;;;17.60;81.20;;;;;;5090224;28;20144;-73
2022/04/05 12:40:22;;;;;;;4.60;0.90;;;17.60;82.00;;;;;;5071582;28;20048;-71
2022/04/05 12:42:50;;;;;;;3.55;1.42;;;17.60;82.40;;;;;;5082792;28;20043;-72
2022/04/05 12:45:30;;;;;;;2.85;1.00;;;17.70;83.10;;;;;;5067061;28;20067;-71
2022/04/05 12:48:09;;;;;;;8.57;1.23;;;17.40;81.20;;;;;;5056759;28;20174;-71
2022/04/05 12:50:46;;;;;;;1.95;1.02;;;17.40;83.20;;;;;;5082843;28;20044;-70
2022/04/05 12:53:26;;;;;;;4.32;1.70;;;17.30;83.50;;;;;;5055582;28;20055;-71
2022/04/05 12:55:58;;;;;;;3.40;0.90;;;17.30;84.70;;;;;;5074401;28;20049;-71
2022/04/05 12:58:39;;;;;;;1.50;1.10;;;17.20;85.00;;;;;;5067593;28;20406;-71
2022/04/05 13:01:27;;;;;;;3.38;1.20;;;17.30;85.30;;;;;;5092309;28;20047;-71
2022/04/05 13:04:02;;;;;;;1.52;1.13;;;17.20;85.30;;;;;;5068819;28;20127;-70
2022/04/05 13:06:32;;;;;;;2.25;1.20;;;17.30;86.10;;;;;;5062640;28;20505;-71